»·PEaware :: COA103 KLAS-KPHX

COA103 :: KLAS-KPHX

FLIGHT INFORMATION

Flight Status: Arrived
Operator:
Continental Air Lines
More flights by this operator :: More flights under this callsign
Pilot: Andrew C. (28419)
Aircraft: BOEING 737-800
(B738)
More flights by this aircraft type
Origin: KLAS McCarran Intl
United States
Destination: KPHX Phoenix Sky Harbor Intl
United States
More flights between these airports :: More routes between these airports
Route: +PRFUM4 PRFUM WOTRO BRUSR1
File this flight plan on PilotEdge
Remarks: RMK / SIMBRIEF
Altitude:
(Current/Filed)
35,000ft
Speed:
(Current/Filed)
458kts
Departed: 14-Sep-20 02:56 PM
Arrived: 14-Sep-20 03:41 PM
Distance/Time
Traveled:
222nm/0:44
Distance/Time
To Go:
Arrived

Flight Plot

Page will automatically refresh every two minutes.

Flight plan parsing failed; only flown route is shown


Map Options




Map Legend


Flown Route
Filed Route
Departure Airport
Arrival Airport
Navaid (VOR, NDB)
Fix

Horizontal Profiles

Position Reports

Time Latitude Longitude Heading Altitude Ground
Speed
14-Sep-20 14:35 36.079707 -115.140103 25 2079ft 0kts
14-Sep-20 14:36 36.079707 -115.140103 25 2079ft 0kts
14-Sep-20 14:37 36.079707 -115.140103 25 2079ft 0kts
14-Sep-20 14:38 36.079707 -115.140103 25 2079ft 0kts
14-Sep-20 14:40 36.079707 -115.140103 25 2079ft 0kts
14-Sep-20 14:40 36.079707 -115.140103 25 2079ft 0kts
14-Sep-20 14:41 36.079707 -115.140103 25 2079ft 0kts
14-Sep-20 14:42 36.079707 -115.140103 25 2079ft 0kts
14-Sep-20 14:43 36.079707 -115.140103 25 2079ft 0kts
14-Sep-20 14:44 36.079707 -115.140103 25 2079ft 0kts
14-Sep-20 14:45 36.079694 -115.140111 25 2079ft 1kts
14-Sep-20 14:46 36.079433 -115.140579 122 2081ft 1kts
14-Sep-20 14:47 36.079474 -115.140646 124 2081ft 0kts
14-Sep-20 14:48 36.079422 -115.140581 137 2081ft 3kts
14-Sep-20 14:49 36.079320 -115.140485 154 2081ft 0kts
14-Sep-20 14:50 36.077666 -115.137274 107 2077ft 19kts
14-Sep-20 14:51 36.077572 -115.127486 88 2051ft 35kts
14-Sep-20 14:52 36.077455 -115.121494 126 2040ft 0kts
14-Sep-20 14:53 36.076438 -115.121627 266 2042ft 0kts
14-Sep-20 14:54 36.076438 -115.121627 266 2042ft 0kts
14-Sep-20 14:55 36.076433 -115.126656 269 2052ft 94kts
14-Sep-20 14:56 36.076489 -115.184549 269 3670ft 196kts
14-Sep-20 14:57 36.054896 -115.259641 216 5329ft 285kts
14-Sep-20 14:58 35.979775 -115.290296 183 8159ft 290kts
14-Sep-20 14:59 35.899651 -115.271949 151 10601ft 327kts
14-Sep-20 15:00 35.845910 -115.177172 108 12881ft 360kts
14-Sep-20 15:01 35.824340 -115.054260 91 15299ft 377kts
14-Sep-20 15:02 35.832777 -114.923665 84 17535ft 389kts
14-Sep-20 15:03 35.842929 -114.788226 84 19472ft 402kts
14-Sep-20 15:04 35.850701 -114.648882 95 21197ft 415kts
14-Sep-20 15:05 35.807370 -114.515794 119 22785ft 426kts
14-Sep-20 15:06 35.744729 -114.389822 122 24170ft 438kts
14-Sep-20 15:07 35.677463 -114.261790 123 25387ft 449kts
14-Sep-20 15:08 35.608573 -114.132208 123 26593ft 458kts
14-Sep-20 15:09 35.537901 -114.000004 123 27763ft 467kts
14-Sep-20 15:10 35.472444 -113.878509 123 28657ft 477kts
14-Sep-20 15:11 35.398006 -113.741031 123 29489ft 488kts
14-Sep-20 15:12 35.322439 -113.601563 123 30349ft 493kts
14-Sep-20 15:13 35.246190 -113.461301 123 31344ft 495kts
14-Sep-20 15:14 35.173211 -113.327427 124 31464ft 463kts
14-Sep-20 15:15 35.098172 -113.190785 123 29736ft 490kts
14-Sep-20 15:16 35.024467 -113.057204 123 29165ft 476kts
14-Sep-20 15:17 34.949856 -112.922538 123 29257ft 477kts
14-Sep-20 15:18 34.876408 -112.790232 123 29389ft 477kts
14-Sep-20 15:19 34.803655 -112.659604 123 27563ft 456kts
14-Sep-20 15:20 34.733493 -112.535231 127 25292ft 437kts
14-Sep-20 15:21 34.649511 -112.433630 137 24279ft 430kts
14-Sep-20 15:22 34.559702 -112.341696 140 22205ft 414kts
14-Sep-20 15:23 34.471611 -112.256000 148 19990ft 399kts
14-Sep-20 15:24 34.371652 -112.213301 165 18452ft 373kts
14-Sep-20 15:25 34.275082 -112.185927 167 17065ft 352kts
14-Sep-20 15:26 34.180000 -112.161172 167 15131ft 349kts
14-Sep-20 15:27 34.086327 -112.139536 176 13676ft 330kts
14-Sep-20 15:28 33.995611 -112.147086 183 12054ft 325kts
14-Sep-20 15:29 33.906666 -112.157401 186 10464ft 318kts
14-Sep-20 15:30 33.824886 -112.174690 188 9260ft 284kts
14-Sep-20 15:31 33.747785 -112.191035 188 8127ft 272kts
14-Sep-20 15:32 33.675649 -112.204832 181 7458ft 255kts
14-Sep-20 15:33 33.608626 -112.207642 180 6844ft 235kts
14-Sep-20 15:35 33.543647 -112.210116 180 5894ft 233kts
14-Sep-20 15:36 33.478496 -112.212602 174 4779ft 243kts
14-Sep-20 15:37 33.438871 -112.164866 86 3473ft 195kts
14-Sep-20 15:38 33.440605 -112.106976 89 2563ft 155kts
14-Sep-20 15:39 33.440853 -112.056248 88 1656ft 149kts
14-Sep-20 15:40 33.440881 -112.008434 90 1146ft 108kts
14-Sep-20 15:41 33.440122 -111.993652 189 1145ft 1kts
14-Sep-20 15:42 33.439762 -111.998428 268 1145ft 33kts
14-Sep-20 15:43 33.438288 -112.007414 191 1145ft 11kts
14-Sep-20 15:44 33.437991 -112.008242 270 1145ft 0kts
14-Sep-20 15:45 33.437991 -112.008242 270 1145ft 0kts
14-Sep-20 15:46 33.437991 -112.008242 270 1145ft 0kts

Navigation Log

Ident Type
Flight plan parsing failed, navigation log unavailable